sensor_id;sensor_type;location;lat;lon;timestamp;P1;durP1;ratioP1;P2;durP2;ratioP2
3217;SDS011;1621;49.702;8.618;2023-02-01T00:01:47;7.77;;;6.20;;
3217;SDS011;1621;49.702;8.618;2023-02-01T00:04:13;9.30;;;5.90;;
3217;SDS011;1621;49.702;8.618;2023-02-01T00:06:39;7.00;;;6.10;;
3217;SDS011;1621;49.702;8.618;2023-02-01T00:09:05;13.70;;;7.30;;
3217;SDS011;1621;49.702;8.618;2023-02-01T00:11:32;7.07;;;5.17;;
3217;SDS011;1621;49.702;8.618;2023-02-01T00:13:59;9.63;;;5.20;;
3217;SDS011;1621;49.702;8.618;2023-02-01T00:16:26;7.03;;;5.10;;
3217;SDS011;1621;49.702;8.618;2023-02-01T00:18:56;9.03;;;5.70;;
3217;SDS011;1621;49.702;8.618;2023-02-01T00:21:23;6.83;;;5.70;;
3217;SDS011;1621;49.702;8.618;2023-02-01T00:23:49;7.17;;;5.87;;
3217;SDS011;1621;49.702;8.618;2023-02-01T00:26:16;7.43;;;5.43;;
3217;SDS011;1621;49.702;8.618;2023-02-01T00:28:43;7.70;;;5.10;;
3217;SDS011;1621;49.702;8.618;2023-02-01T00:31:10;8.17;;;4.63;;
3217;SDS011;1621;49.702;8.618;2023-02-01T00:33:36;7.43;;;5.70;;
3217;SDS011;1621;49.702;8.618;2023-02-01T00:36:03;5.93;;;5.17;;
3217;SDS011;1621;49.702;8.618;2023-02-01T00:38:30;7.87;;;5.90;;
3217;SDS011;1621;49.702;8.618;2023-02-01T00:41:01;11.10;;;5.13;;
3217;SDS011;1621;49.702;8.618;2023-02-01T00:43:27;7.27;;;6.13;;
3217;SDS011;1621;49.702;8.618;2023-02-01T00:45:53;7.67;;;6.20;;
3217;SDS011;1621;49.702;8.618;2023-02-01T00:48:21;10.23;;;6.07;;
3217;SDS011;1621;49.702;8.618;2023-02-01T00:50:47;10.17;;;5.80;;
3217;SDS011;1621;49.702;8.618;2023-02-01T00:53:13;10.53;;;5.57;;
3217;SDS011;1621;49.702;8.618;2023-02-01T00:55:40;6.40;;;5.50;;
3217;SDS011;1621;49.702;8.618;2023-02-01T00:58:06;7.80;;;6.03;;
3217;SDS011;1621;49.702;8.618;2023-02-01T01:00:34;8.67;;;6.20;;
3217;SDS011;1621;49.702;8.618;2023-02-01T01:03:00;9.10;;;6.23;;
3217;SDS011;1621;49.702;8.618;2023-02-01T01:05:28;7.30;;;6.00;;
3217;SDS011;1621;49.702;8.618;2023-02-01T01:07:54;7.47;;;5.70;;
3217;SDS011;1621;49.702;8.618;2023-02-01T01:10:20;9.80;;;6.47;;
3217;SDS011;1621;49.702;8.618;2023-02-01T01:12:47;8.10;;;6.33;;
3217;SDS011;1621;49.702;8.618;2023-02-01T01:15:13;7.00;;;5.87;;
3217;SDS011;1621;49.702;8.618;2023-02-01T01:17:39;7.83;;;6.00;;
3217;SDS011;1621;49.702;8.618;2023-02-01T01:20:06;9.07;;;6.10;;
3217;SDS011;1621;49.702;8.618;2023-02-01T01:22:33;12.20;;;6.30;;
3217;SDS011;1621;49.702;8.618;2023-02-01T01:25:00;6.50;;;5.23;;
3217;SDS011;1621;49.702;8.618;2023-02-01T01:27:26;7.97;;;6.20;;
3217;SDS011;1621;49.702;8.618;2023-02-01T01:29:52;10.60;;;6.03;;
3217;SDS011;1621;49.702;8.618;2023-02-01T01:32:18;9.67;;;6.20;;
3217;SDS011;1621;49.702;8.618;2023-02-01T01:34:44;9.70;;;6.80;;
3217;SDS011;1621;49.702;8.618;2023-02-01T01:37:11;9.40;;;6.37;;
3217;SDS011;1621;49.702;8.618;2023-02-01T01:39:38;7.27;;;5.87;;
3217;SDS011;1621;49.702;8.618;2023-02-01T01:42:04;9.27;;;6.57;;
3217;SDS011;1621;49.702;8.618;2023-02-01T01:47:16;7.50;;;6.03;;
3217;SDS011;1621;49.702;8.618;2023-02-01T01:49:42;7.83;;;6.20;;
3217;SDS011;1621;49.702;8.618;2023-02-01T01:52:09;8.50;;;5.70;;
3217;SDS011;1621;49.702;8.618;2023-02-01T01:54:37;8.17;;;6.00;;
3217;SDS011;1621;49.702;8.618;2023-02-01T01:57:06;8.40;;;6.57;;
3217;SDS011;1621;49.702;8.618;2023-02-01T01:59:33;9.80;;;6.20;;
3217;SDS011;1621;49.702;8.618;2023-02-01T02:02:00;7.97;;;6.40;;
3217;SDS011;1621;49.702;8.618;2023-02-01T02:04:26;7.70;;;6.00;;
3217;SDS011;1621;49.702;8.618;2023-02-01T02:06:54;9.63;;;5.87;;
3217;SDS011;1621;49.702;8.618;2023-02-01T02:09:20;9.80;;;6.33;;
3217;SDS011;1621;49.702;8.618;2023-02-01T02:11:47;6.70;;;5.77;;
3217;SDS011;1621;49.702;8.618;2023-02-01T02:14:15;8.60;;;6.07;;
3217;SDS011;1621;49.702;8.618;2023-02-01T02:16:46;9.37;;;7.20;;
3217;SDS011;1621;49.702;8.618;2023-02-01T02:22:05;9.30;;;7.23;;
3217;SDS011;1621;49.702;8.618;2023-02-01T02:24:43;10.00;;;6.73;;
3217;SDS011;1621;49.702;8.618;2023-02-01T02:27:18;9.00;;;7.37;;
3217;SDS011;1621;49.702;8.618;2023-02-01T02:30:01;10.13;;;7.40;;
3217;SDS011;1621;49.702;8.618;2023-02-01T02:32:39;10.57;;;7.50;;
3217;SDS011;1621;49.702;8.618;2023-02-01T02:35:13;8.83;;;6.70;;
3217;SDS011;1621;49.702;8.618;2023-02-01T02:37:42;11.60;;;7.30;;
3217;SDS011;1621;49.702;8.618;2023-02-01T02:40:11;11.23;;;8.00;;
3217;SDS011;1621;49.702;8.618;2023-02-01T02:42:40;10.97;;;7.47;;
3217;SDS011;1621;49.702;8.618;2023-02-01T02:45:27;9.37;;;7.37;;
3217;SDS011;1621;49.702;8.618;2023-02-01T02:48:13;8.80;;;7.10;;
3217;SDS011;1621;49.702;8.618;2023-02-01T02:50:43;8.80;;;6.80;;
3217;SDS011;1621;49.702;8.618;2023-02-01T02:53:31;9.60;;;6.80;;
3217;SDS011;1621;49.702;8.618;2023-02-01T02:56:16;10.47;;;6.70;;
3217;SDS011;1621;49.702;8.618;2023-02-01T02:59:01;10.40;;;6.90;;
3217;SDS011;1621;49.702;8.618;2023-02-01T03:01:45;13.23;;;7.23;;
3217;SDS011;1621;49.702;8.618;2023-02-01T03:04:29;9.60;;;6.90;;
3217;SDS011;1621;49.702;8.618;2023-02-01T03:06:57;11.07;;;7.90;;
3217;SDS011;1621;49.702;8.618;2023-02-01T03:09:24;8.50;;;7.60;;
3217;SDS011;1621;49.702;8.618;2023-02-01T03:11:54;12.17;;;7.57;;
3217;SDS011;1621;49.702;8.618;2023-02-01T03:14:39;9.20;;;7.60;;
3217;SDS011;1621;49.702;8.618;2023-02-01T03:17:07;10.67;;;6.60;;
3217;SDS011;1621;49.702;8.618;2023-02-01T03:19:37;10.77;;;7.63;;
3217;SDS011;1621;49.702;8.618;2023-02-01T03:22:10;8.97;;;7.30;;
3217;SDS011;1621;49.702;8.618;2023-02-01T03:24:39;9.93;;;7.00;;
3217;SDS011;1621;49.702;8.618;2023-02-01T03:27:07;8.43;;;6.23;;
3217;SDS011;1621;49.702;8.618;2023-02-01T03:29:37;9.30;;;7.50;;
3217;SDS011;1621;49.702;8.618;2023-02-01T03:32:04;10.00;;;6.80;;
3217;SDS011;1621;49.702;8.618;2023-02-01T03:34:30;9.57;;;6.80;;
3217;SDS011;1621;49.702;8.618;2023-02-01T03:36:57;9.57;;;7.60;;
3217;SDS011;1621;49.702;8.618;2023-02-01T03:39:27;10.60;;;7.30;;
3217;SDS011;1621;49.702;8.618;2023-02-01T03:41:57;9.17;;;6.93;;
3217;SDS011;1621;49.702;8.618;2023-02-01T03:44:25;9.00;;;6.97;;
3217;SDS011;1621;49.702;8.618;2023-02-01T03:46:52;11.60;;;7.90;;
3217;SDS011;1621;49.702;8.618;2023-02-01T03:49:21;13.20;;;8.03;;
3217;SDS011;1621;49.702;8.618;2023-02-01T03:51:49;9.10;;;7.80;;
3217;SDS011;1621;49.702;8.618;2023-02-01T03:54:17;9.40;;;7.70;;
3217;SDS011;1621;49.702;8.618;2023-02-01T03:56:45;10.60;;;7.37;;
3217;SDS011;1621;49.702;8.618;2023-02-01T03:59:13;13.80;;;7.77;;
3217;SDS011;1621;49.702;8.618;2023-02-01T04:01:39;11.30;;;7.63;;
3217;SDS011;1621;49.702;8.618;2023-02-01T04:04:06;9.90;;;8.23;;
3217;SDS011;1621;49.702;8.618;2023-02-01T04:06:32;12.10;;;8.07;;
3217;SDS011;1621;49.702;8.618;2023-02-01T04:08:58;9.67;;;7.27;;
3217;SDS011;1621;49.702;8.618;2023-02-01T04:11:25;11.57;;;8.23;;
3217;SDS011;1621;49.702;8.618;2023-02-01T04:13:53;9.97;;;6.93;;
3217;SDS011;1621;49.702;8.618;2023-02-01T04:16:19;10.67;;;6.87;;
3217;SDS011;1621;49.702;8.618;2023-02-01T04:18:46;11.27;;;7.90;;
3217;SDS011;1621;49.702;8.618;2023-02-01T04:21:12;9.80;;;7.77;;
3217;SDS011;1621;49.702;8.618;2023-02-01T04:23:38;11.53;;;8.13;;
3217;SDS011;1621;49.702;8.618;2023-02-01T04:26:04;9.70;;;7.90;;
3217;SDS011;1621;49.702;8.618;2023-02-01T04:28:31;11.17;;;8.37;;
3217;SDS011;1621;49.702;8.618;2023-02-01T04:30:59;11.50;;;7.07;;
3217;SDS011;1621;49.702;8.618;2023-02-01T04:33:25;11.43;;;8.43;;
3217;SDS011;1621;49.702;8.618;2023-02-01T04:35:51;11.57;;;8.20;;
3217;SDS011;1621;49.702;8.618;2023-02-01T04:38:18;11.40;;;8.53;;
3217;SDS011;1621;49.702;8.618;2023-02-01T04:40:46;13.73;;;7.90;;
3217;SDS011;1621;49.702;8.618;2023-02-01T04:43:12;19.40;;;8.70;;
3217;SDS011;1621;49.702;8.618;2023-02-01T04:45:38;13.90;;;8.30;;
3217;SDS011;1621;49.702;8.618;2023-02-01T04:48:06;9.60;;;7.40;;
3217;SDS011;1621;49.702;8.618;2023-02-01T04:50:32;10.83;;;7.93;;
3217;SDS011;1621;49.702;8.618;2023-02-01T04:52:58;9.93;;;8.67;;
3217;SDS011;1621;49.702;8.618;2023-02-01T04:55:25;11.77;;;8.73;;
3217;SDS011;1621;49.702;8.618;2023-02-01T04:57:51;12.17;;;9.03;;
3217;SDS011;1621;49.702;8.618;2023-02-01T05:00:17;13.17;;;9.10;;
3217;SDS011;1621;49.702;8.618;2023-02-01T05:02:44;11.60;;;8.03;;
3217;SDS011;1621;49.702;8.618;2023-02-01T05:05:11;13.00;;;9.10;;
3217;SDS011;1621;49.702;8.618;2023-02-01T05:07:38;15.93;;;8.90;;
3217;SDS011;1621;49.702;8.618;2023-02-01T05:10:04;14.97;;;10.13;;
3217;SDS011;1621;49.702;8.618;2023-02-01T05:12:30;13.13;;;8.70;;
3217;SDS011;1621;49.702;8.618;2023-02-01T05:15:14;14.13;;;9.07;;
3217;SDS011;1621;49.702;8.618;2023-02-01T05:17:40;10.87;;;7.73;;
3217;SDS011;1621;49.702;8.618;2023-02-01T05:20:07;13.10;;;7.80;;
3217;SDS011;1621;49.702;8.618;2023-02-01T05:22:35;18.50;;;6.90;;
3217;SDS011;1621;49.702;8.618;2023-02-01T05:25:01;9.83;;;5.43;;
3217;SDS011;1621;49.702;8.618;2023-02-01T05:27:28;7.63;;;4.73;;
3217;SDS011;1621;49.702;8.618;2023-02-01T05:29:54;7.23;;;4.90;;
3217;SDS011;1621;49.702;8.618;2023-02-01T05:32:21;7.83;;;4.60;;
3217;SDS011;1621;49.702;8.618;2023-02-01T05:34:47;6.63;;;3.90;;
3217;SDS011;1621;49.702;8.618;2023-02-01T05:37:13;6.77;;;4.33;;
3217;SDS011;1621;49.702;8.618;2023-02-01T05:39:41;6.10;;;3.30;;
3217;SDS011;1621;49.702;8.618;2023-02-01T05:42:07;5.63;;;3.50;;
3217;SDS011;1621;49.702;8.618;2023-02-01T05:44:33;7.07;;;3.40;;
3217;SDS011;1621;49.702;8.618;2023-02-01T05:46:59;5.97;;;3.37;;
3217;SDS011;1621;49.702;8.618;2023-02-01T05:49:26;6.07;;;3.57;;
3217;SDS011;1621;49.702;8.618;2023-02-01T05:51:52;6.17;;;3.40;;
3217;SDS011;1621;49.702;8.618;2023-02-01T05:54:18;5.93;;;3.53;;
3217;SDS011;1621;49.702;8.618;2023-02-01T05:56:46;6.97;;;3.40;;
3217;SDS011;1621;49.702;8.618;2023-02-01T05:59:12;6.67;;;3.30;;
3217;SDS011;1621;49.702;8.618;2023-02-01T06:01:38;6.53;;;3.37;;
3217;SDS011;1621;49.702;8.618;2023-02-01T06:04:04;8.23;;;4.93;;
3217;SDS011;1621;49.702;8.618;2023-02-01T06:06:31;6.33;;;3.97;;
3217;SDS011;1621;49.702;8.618;2023-02-01T06:08:57;9.10;;;4.27;;
3217;SDS011;1621;49.702;8.618;2023-02-01T06:11:24;6.70;;;4.10;;
3217;SDS011;1621;49.702;8.618;2023-02-01T06:13:51;6.50;;;4.07;;
3217;SDS011;1621;49.702;8.618;2023-02-01T06:16:18;8.07;;;4.53;;
3217;SDS011;1621;49.702;8.618;2023-02-01T06:18:45;6.27;;;4.57;;
3217;SDS011;1621;49.702;8.618;2023-02-01T06:21:11;7.37;;;5.17;;
3217;SDS011;1621;49.702;8.618;2023-02-01T06:23:38;8.60;;;5.70;;
3217;SDS011;1621;49.702;8.618;2023-02-01T06:26:05;14.77;;;6.70;;
3217;SDS011;1621;49.702;8.618;2023-02-01T06:28:32;11.50;;;6.30;;
3217;SDS011;1621;49.702;8.618;2023-02-01T06:31:04;11.70;;;7.30;;
3217;SDS011;1621;49.702;8.618;2023-02-01T06:33:31;9.70;;;6.63;;
3217;SDS011;1621;49.702;8.618;2023-02-01T06:35:57;9.90;;;7.40;;
3217;SDS011;1621;49.702;8.618;2023-02-01T06:38:24;15.43;;;8.00;;
3217;SDS011;1621;49.702;8.618;2023-02-01T06:40:51;10.47;;;7.33;;
3217;SDS011;1621;49.702;8.618;2023-02-01T06:43:18;12.53;;;8.00;;
3217;SDS011;1621;49.702;8.618;2023-02-01T06:45:44;13.67;;;7.20;;
3217;SDS011;1621;49.702;8.618;2023-02-01T06:48:12;12.70;;;7.63;;
3217;SDS011;1621;49.702;8.618;2023-02-01T06:50:38;14.20;;;8.10;;
3217;SDS011;1621;49.702;8.618;2023-02-01T06:53:04;14.80;;;8.43;;
3217;SDS011;1621;49.702;8.618;2023-02-01T06:55:30;11.47;;;8.00;;
3217;SDS011;1621;49.702;8.618;2023-02-01T06:57:56;14.10;;;7.93;;
3217;SDS011;1621;49.702;8.618;2023-02-01T07:00:23;9.83;;;7.60;;
3217;SDS011;1621;49.702;8.618;2023-02-01T07:02:49;9.53;;;7.20;;
3217;SDS011;1621;49.702;8.618;2023-02-01T07:05:17;12.70;;;7.47;;
3217;SDS011;1621;49.702;8.618;2023-02-01T07:07:43;15.67;;;7.60;;
3217;SDS011;1621;49.702;8.618;2023-02-01T07:10:10;10.97;;;7.13;;
3217;SDS011;1621;49.702;8.618;2023-02-01T07:12:36;13.03;;;7.63;;
3217;SDS011;1621;49.702;8.618;2023-02-01T07:15:02;10.30;;;6.70;;
3217;SDS011;1621;49.702;8.618;2023-02-01T07:17:29;12.77;;;8.37;;
3217;SDS011;1621;49.702;8.618;2023-02-01T07:19:55;12.93;;;7.00;;
3217;SDS011;1621;49.702;8.618;2023-02-01T07:22:23;11.13;;;7.30;;
3217;SDS011;1621;49.702;8.618;2023-02-01T07:24:49;12.00;;;7.00;;
3217;SDS011;1621;49.702;8.618;2023-02-01T07:27:15;11.13;;;7.80;;
3217;SDS011;1621;49.702;8.618;2023-02-01T07:29:41;9.70;;;7.60;;
3217;SDS011;1621;49.702;8.618;2023-02-01T07:32:08;11.33;;;7.20;;
3217;SDS011;1621;49.702;8.618;2023-02-01T07:34:34;12.90;;;8.50;;
3217;SDS011;1621;49.702;8.618;2023-02-01T07:37:00;16.07;;;10.33;;
3217;SDS011;1621;49.702;8.618;2023-02-01T07:39:28;12.27;;;8.70;;
3217;SDS011;1621;49.702;8.618;2023-02-01T07:41:56;12.70;;;7.80;;
3217;SDS011;1621;49.702;8.618;2023-02-01T07:44:23;10.30;;;8.00;;
3217;SDS011;1621;49.702;8.618;2023-02-01T07:46:49;12.23;;;7.60;;
3217;SDS011;1621;49.702;8.618;2023-02-01T07:49:15;13.80;;;6.80;;
3217;SDS011;1621;49.702;8.618;2023-02-01T07:51:42;9.10;;;5.53;;
3217;SDS011;1621;49.702;8.618;2023-02-01T07:54:08;8.87;;;7.40;;
3217;SDS011;1621;49.702;8.618;2023-02-01T07:56:36;12.20;;;7.30;;
3217;SDS011;1621;49.702;8.618;2023-02-01T07:59:02;12.87;;;7.80;;
3217;SDS011;1621;49.702;8.618;2023-02-01T08:01:29;13.60;;;8.00;;
3217;SDS011;1621;49.702;8.618;2023-02-01T08:03:54;10.60;;;7.57;;
3217;SDS011;1621;49.702;8.618;2023-02-01T08:06:21;9.13;;;6.67;;
3217;SDS011;1621;49.702;8.618;2023-02-01T08:08:48;11.10;;;7.03;;
3217;SDS011;1621;49.702;8.618;2023-02-01T08:11:14;11.10;;;7.27;;
3217;SDS011;1621;49.702;8.618;2023-02-01T08:13:42;12.63;;;7.37;;
3217;SDS011;1621;49.702;8.618;2023-02-01T08:16:09;12.27;;;7.57;;
3217;SDS011;1621;49.702;8.618;2023-02-01T08:18:36;11.47;;;7.47;;
3217;SDS011;1621;49.702;8.618;2023-02-01T08:21:03;10.30;;;6.93;;
3217;SDS011;1621;49.702;8.618;2023-02-01T08:23:30;8.73;;;6.63;;
3217;SDS011;1621;49.702;8.618;2023-02-01T08:26:03;11.00;;;6.70;;
3217;SDS011;1621;49.702;8.618;2023-02-01T08:28:29;11.07;;;6.47;;
3217;SDS011;1621;49.702;8.618;2023-02-01T08:30:57;10.90;;;7.40;;
3217;SDS011;1621;49.702;8.618;2023-02-01T08:33:23;16.13;;;6.97;;
3217;SDS011;1621;49.702;8.618;2023-02-01T08:35:49;10.27;;;6.40;;
3217;SDS011;1621;49.702;8.618;2023-02-01T08:38:15;14.17;;;7.43;;
3217;SDS011;1621;49.702;8.618;2023-02-01T08:40:42;13.33;;;6.67;;
3217;SDS011;1621;49.702;8.618;2023-02-01T08:43:08;14.43;;;7.20;;
3217;SDS011;1621;49.702;8.618;2023-02-01T08:45:34;11.40;;;6.20;;
3217;SDS011;1621;49.702;8.618;2023-02-01T08:48:02;15.00;;;6.93;;
3217;SDS011;1621;49.702;8.618;2023-02-01T08:50:28;10.87;;;6.00;;
3217;SDS011;1621;49.702;8.618;2023-02-01T08:52:54;12.00;;;6.07;;
3217;SDS011;1621;49.702;8.618;2023-02-01T08:55:20;13.90;;;6.80;;
3217;SDS011;1621;49.702;8.618;2023-02-01T08:57:47;12.47;;;6.23;;
3217;SDS011;1621;49.702;8.618;2023-02-01T09:00:14;10.40;;;6.40;;
3217;SDS011;1621;49.702;8.618;2023-02-01T09:02:41;10.90;;;6.00;;
3217;SDS011;1621;49.702;8.618;2023-02-01T09:05:08;12.10;;;6.37;;
3217;SDS011;1621;49.702;8.618;2023-02-01T09:07:35;20.73;;;6.50;;
3217;SDS011;1621;49.702;8.618;2023-02-01T09:10:02;15.80;;;6.03;;
3217;SDS011;1621;49.702;8.618;2023-02-01T09:12:28;11.53;;;6.53;;
3217;SDS011;1621;49.702;8.618;2023-02-01T09:14:55;13.03;;;6.73;;
3217;SDS011;1621;49.702;8.618;2023-02-01T09:17:21;14.80;;;6.10;;
3217;SDS011;1621;49.702;8.618;2023-02-01T09:19:48;13.10;;;5.87;;
3217;SDS011;1621;49.702;8.618;2023-02-01T09:22:15;13.70;;;6.37;;
3217;SDS011;1621;49.702;8.618;2023-02-01T09:24:41;10.33;;;6.03;;
3217;SDS011;1621;49.702;8.618;2023-02-01T09:27:08;11.70;;;5.53;;
3217;SDS011;1621;49.702;8.618;2023-02-01T09:29:34;10.50;;;5.67;;
3217;SDS011;1621;49.702;8.618;2023-02-01T09:32:00;13.77;;;6.93;;
3217;SDS011;1621;49.702;8.618;2023-02-01T09:34:26;12.90;;;6.17;;
3217;SDS011;1621;49.702;8.618;2023-02-01T09:36:53;13.00;;;6.33;;
3217;SDS011;1621;49.702;8.618;2023-02-01T09:39:20;13.53;;;6.40;;
3217;SDS011;1621;49.702;8.618;2023-02-01T09:41:49;12.40;;;6.90;;
3217;SDS011;1621;49.702;8.618;2023-02-01T09:44:31;16.67;;;6.60;;
3217;SDS011;1621;49.702;8.618;2023-02-01T09:47:00;12.10;;;6.77;;
3217;SDS011;1621;49.702;8.618;2023-02-01T09:49:27;22.07;;;8.00;;
3217;SDS011;1621;49.702;8.618;2023-02-01T09:51:54;13.67;;;6.60;;
3217;SDS011;1621;49.702;8.618;2023-02-01T09:54:24;12.70;;;7.43;;
3217;SDS011;1621;49.702;8.618;2023-02-01T09:56:51;14.40;;;6.83;;
3217;SDS011;1621;49.702;8.618;2023-02-01T09:59:23;18.30;;;7.10;;
3217;SDS011;1621;49.702;8.618;2023-02-01T10:01:52;17.90;;;7.13;;
3217;SDS011;1621;49.702;8.618;2023-02-01T10:04:18;14.87;;;6.53;;
3217;SDS011;1621;49.702;8.618;2023-02-01T10:06:48;11.67;;;6.40;;
3217;SDS011;1621;49.702;8.618;2023-02-01T10:09:25;15.47;;;6.30;;
3217;SDS011;1621;49.702;8.618;2023-02-01T10:12:02;14.03;;;5.13;;
3217;SDS011;1621;49.702;8.618;2023-02-01T10:17:18;8.93;;;5.13;;
3217;SDS011;1621;49.702;8.618;2023-02-01T10:19:47;16.20;;;6.00;;
3217;SDS011;1621;49.702;8.618;2023-02-01T10:22:19;20.17;;;6.03;;
3217;SDS011;1621;49.702;8.618;2023-02-01T10:24:50;12.23;;;4.50;;
3217;SDS011;1621;49.702;8.618;2023-02-01T10:27:22;15.03;;;5.40;;
3217;SDS011;1621;49.702;8.618;2023-02-01T10:29:51;18.90;;;9.20;;
3217;SDS011;1621;49.702;8.618;2023-02-01T10:32:20;9.63;;;4.60;;
3217;SDS011;1621;49.702;8.618;2023-02-01T10:34:48;14.50;;;6.60;;
3217;SDS011;1621;49.702;8.618;2023-02-01T10:37:18;19.10;;;8.00;;
3217;SDS011;1621;49.702;8.618;2023-02-01T10:39:46;12.07;;;4.33;;
3217;SDS011;1621;49.702;8.618;2023-02-01T10:42:15;12.97;;;5.80;;
3217;SDS011;1621;49.702;8.618;2023-02-01T10:44:42;14.90;;;6.73;;
3217;SDS011;1621;49.702;8.618;2023-02-01T10:47:10;9.30;;;4.07;;
3217;SDS011;1621;49.702;8.618;2023-02-01T10:49:37;15.00;;;5.43;;
3217;SDS011;1621;49.702;8.618;2023-02-01T10:52:05;10.80;;;4.03;;
3217;SDS011;1621;49.702;8.618;2023-02-01T10:54:36;14.00;;;4.57;;
3217;SDS011;1621;49.702;8.618;2023-02-01T10:57:04;8.03;;;3.30;;
3217;SDS011;1621;49.702;8.618;2023-02-01T10:59:34;16.80;;;4.83;;
3217;SDS011;1621;49.702;8.618;2023-02-01T11:02:02;9.67;;;3.50;;
3217;SDS011;1621;49.702;8.618;2023-02-01T11:04:32;12.43;;;3.23;;
3217;SDS011;1621;49.702;8.618;2023-02-01T11:07:04;9.23;;;3.00;;
3217;SDS011;1621;49.702;8.618;2023-02-01T11:09:32;12.10;;;4.27;;
3217;SDS011;1621;49.702;8.618;2023-02-01T11:12:00;8.83;;;3.30;;
3217;SDS011;1621;49.702;8.618;2023-02-01T11:14:30;9.60;;;3.60;;
3217;SDS011;1621;49.702;8.618;2023-02-01T11:17:00;9.50;;;3.43;;
3217;SDS011;1621;49.702;8.618;2023-02-01T11:19:26;9.53;;;3.03;;
3217;SDS011;1621;49.702;8.618;2023-02-01T11:21:53;7.37;;;3.20;;
3217;SDS011;1621;49.702;8.618;2023-02-01T11:24:21;13.57;;;3.00;;
3217;SDS011;1621;49.702;8.618;2023-02-01T11:26:48;8.20;;;3.63;;
3217;SDS011;1621;49.702;8.618;2023-02-01T11:29:15;11.50;;;3.23;;
3217;SDS011;1621;49.702;8.618;2023-02-01T11:31:42;9.30;;;3.00;;
3217;SDS011;1621;49.702;8.618;2023-02-01T11:34:12;8.87;;;3.20;;
3217;SDS011;1621;49.702;8.618;2023-02-01T11:36:40;7.47;;;3.03;;
3217;SDS011;1621;49.702;8.618;2023-02-01T11:39:08;9.70;;;3.60;;
3217;SDS011;1621;49.702;8.618;2023-02-01T11:41:40;15.03;;;4.40;;
3217;SDS011;1621;49.702;8.618;2023-02-01T11:44:18;9.83;;;2.93;;
3217;SDS011;1621;49.702;8.618;2023-02-01T11:46:45;10.23;;;3.33;;
3217;SDS011;1621;49.702;8.618;2023-02-01T11:49:19;10.70;;;3.97;;
3217;SDS011;1621;49.702;8.618;2023-02-01T11:51:49;13.03;;;4.33;;
3217;SDS011;1621;49.702;8.618;2023-02-01T11:54:22;9.83;;;4.43;;
3217;SDS011;1621;49.702;8.618;2023-02-01T11:56:54;13.50;;;5.10;;
3217;SDS011;1621;49.702;8.618;2023-02-01T11:59:28;13.07;;;4.40;;
3217;SDS011;1621;49.702;8.618;2023-02-01T12:02:12;9.73;;;3.90;;
3217;SDS011;1621;49.702;8.618;2023-02-01T12:04:48;9.17;;;3.40;;
3217;SDS011;1621;49.702;8.618;2023-02-01T12:07:20;13.00;;;3.90;;
3217;SDS011;1621;49.702;8.618;2023-02-01T12:09:55;9.23;;;3.53;;
3217;SDS011;1621;49.702;8.618;2023-02-01T12:12:28;13.63;;;4.27;;
3217;SDS011;1621;49.702;8.618;2023-02-01T12:15:06;11.07;;;3.60;;
3217;SDS011;1621;49.702;8.618;2023-02-01T12:17:51;10.70;;;3.80;;
3217;SDS011;1621;49.702;8.618;2023-02-01T12:20:23;12.90;;;4.00;;
3217;SDS011;1621;49.702;8.618;2023-02-01T12:22:55;11.13;;;4.10;;
3217;SDS011;1621;49.702;8.618;2023-02-01T12:25:35;8.67;;;3.47;;
3217;SDS011;1621;49.702;8.618;2023-02-01T12:28:17;12.27;;;4.40;;
3217;SDS011;1621;49.702;8.618;2023-02-01T12:30:49;11.63;;;3.67;;
3217;SDS011;1621;49.702;8.618;2023-02-01T12:33:21;11.43;;;3.70;;
3217;SDS011;1621;49.702;8.618;2023-02-01T12:35:56;11.07;;;3.63;;
3217;SDS011;1621;49.702;8.618;2023-02-01T12:38:29;8.43;;;3.60;;
3217;SDS011;1621;49.702;8.618;2023-02-01T12:41:01;10.13;;;3.63;;
3217;SDS011;1621;49.702;8.618;2023-02-01T12:43:33;7.80;;;3.27;;
3217;SDS011;1621;49.702;8.618;2023-02-01T12:46:03;10.90;;;3.73;;
3217;SDS011;1621;49.702;8.618;2023-02-01T12:48:31;7.37;;;2.83;;
3217;SDS011;1621;49.702;8.618;2023-02-01T12:51:01;11.33;;;3.30;;
3217;SDS011;1621;49.702;8.618;2023-02-01T12:53:30;9.87;;;3.40;;
3217;SDS011;1621;49.702;8.618;2023-02-01T12:56:00;11.57;;;3.30;;
3217;SDS011;1621;49.702;8.618;2023-02-01T12:58:30;15.30;;;3.27;;
3217;SDS011;1621;49.702;8.618;2023-02-01T13:00:58;19.83;;;3.33;;
3217;SDS011;1621;49.702;8.618;2023-02-01T13:03:28;15.63;;;3.90;;
3217;SDS011;1621;49.702;8.618;2023-02-01T13:05:58;10.97;;;4.10;;
3217;SDS011;1621;49.702;8.618;2023-02-01T13:08:28;8.37;;;3.40;;
3217;SDS011;1621;49.702;8.618;2023-02-01T13:10:56;7.20;;;3.13;;
3217;SDS011;1621;49.702;8.618;2023-02-01T13:13:26;11.93;;;3.40;;
3217;SDS011;1621;49.702;8.618;2023-02-01T13:15:55;9.70;;;3.50;;
3217;SDS011;1621;49.702;8.618;2023-02-01T13:18:23;11.47;;;3.10;;
3217;SDS011;1621;49.702;8.618;2023-02-01T13:20:52;11.93;;;3.40;;
3217;SDS011;1621;49.702;8.618;2023-02-01T13:23:22;10.67;;;3.10;;
3217;SDS011;1621;49.702;8.618;2023-02-01T13:25:51;15.90;;;3.70;;
3217;SDS011;1621;49.702;8.618;2023-02-01T13:28:19;10.57;;;3.20;;
3217;SDS011;1621;49.702;8.618;2023-02-01T13:30:54;8.40;;;2.70;;
3217;SDS011;1621;49.702;8.618;2023-02-01T13:33:25;9.37;;;3.43;;
3217;SDS011;1621;49.702;8.618;2023-02-01T13:38:54;10.63;;;3.10;;
3217;SDS011;1621;49.702;8.618;2023-02-01T13:41:27;7.43;;;2.30;;
3217;SDS011;1621;49.702;8.618;2023-02-01T13:43:54;8.90;;;2.63;;
3217;SDS011;1621;49.702;8.618;2023-02-01T13:46:21;13.57;;;3.80;;
3217;SDS011;1621;49.702;8.618;2023-02-01T13:48:49;9.83;;;3.77;;
3217;SDS011;1621;49.702;8.618;2023-02-01T13:51:17;13.27;;;3.40;;
3217;SDS011;1621;49.702;8.618;2023-02-01T13:53:51;11.13;;;3.20;;
3217;SDS011;1621;49.702;8.618;2023-02-01T13:56:19;10.47;;;3.83;;
3217;SDS011;1621;49.702;8.618;2023-02-01T13:58:47;9.70;;;3.27;;
3217;SDS011;1621;49.702;8.618;2023-02-01T14:01:31;15.30;;;4.73;;
3217;SDS011;1621;49.702;8.618;2023-02-01T14:03:59;8.50;;;3.37;;
3217;SDS011;1621;49.702;8.618;2023-02-01T14:06:39;8.93;;;3.07;;
3217;SDS011;1621;49.702;8.618;2023-02-01T14:09:17;8.70;;;3.40;;
3217;SDS011;1621;49.702;8.618;2023-02-01T14:11:45;11.40;;;3.63;;
3217;SDS011;1621;49.702;8.618;2023-02-01T14:22:51;17.77;;;3.67;;
3217;SDS011;1621;49.702;8.618;2023-02-01T14:25:26;12.27;;;3.40;;
3217;SDS011;1621;49.702;8.618;2023-02-01T14:27:58;7.97;;;2.97;;
3217;SDS011;1621;49.702;8.618;2023-02-01T14:30:24;12.50;;;3.27;;
3217;SDS011;1621;49.702;8.618;2023-02-01T14:32:50;14.53;;;3.87;;
3217;SDS011;1621;49.702;8.618;2023-02-01T14:35:17;13.80;;;3.67;;
3217;SDS011;1621;49.702;8.618;2023-02-01T14:37:44;15.07;;;3.30;;
3217;SDS011;1621;49.702;8.618;2023-02-01T14:40:16;11.53;;;3.73;;
3217;SDS011;1621;49.702;8.618;2023-02-01T14:42:45;10.73;;;3.47;;
3217;SDS011;1621;49.702;8.618;2023-02-01T14:50:38;9.23;;;3.50;;
3217;SDS011;1621;49.702;8.618;2023-02-01T14:53:11;10.40;;;4.30;;
3217;SDS011;1621;49.702;8.618;2023-02-01T14:55:41;11.47;;;3.90;;
3217;SDS011;1621;49.702;8.618;2023-02-01T14:58:13;8.93;;;3.60;;
3217;SDS011;1621;49.702;8.618;2023-02-01T15:00:46;12.20;;;3.70;;
3217;SDS011;1621;49.702;8.618;2023-02-01T15:03:16;9.00;;;3.77;;
3217;SDS011;1621;49.702;8.618;2023-02-01T15:05:43;15.77;;;3.50;;
3217;SDS011;1621;49.702;8.618;2023-02-01T15:08:12;13.73;;;3.80;;
3217;SDS011;1621;49.702;8.618;2023-02-01T15:10:43;10.73;;;3.93;;
3217;SDS011;1621;49.702;8.618;2023-02-01T15:13:20;9.97;;;4.00;;
3217;SDS011;1621;49.702;8.618;2023-02-01T15:15:59;11.00;;;4.10;;
3217;SDS011;1621;49.702;8.618;2023-02-01T15:18:25;12.53;;;3.50;;
3217;SDS011;1621;49.702;8.618;2023-02-01T15:20:56;10.77;;;4.03;;
3217;SDS011;1621;49.702;8.618;2023-02-01T15:23:22;12.97;;;3.80;;
3217;SDS011;1621;49.702;8.618;2023-02-01T15:25:50;10.37;;;3.97;;
3217;SDS011;1621;49.702;8.618;2023-02-01T15:28:16;10.23;;;2.90;;
3217;SDS011;1621;49.702;8.618;2023-02-01T15:30:51;9.93;;;3.07;;
3217;SDS011;1621;49.702;8.618;2023-02-01T15:33:18;8.40;;;2.93;;
3217;SDS011;1621;49.702;8.618;2023-02-01T15:35:45;13.60;;;3.70;;
3217;SDS011;1621;49.702;8.618;2023-02-01T15:38:29;7.70;;;3.07;;
3217;SDS011;1621;49.702;8.618;2023-02-01T15:40:59;10.57;;;3.27;;
3217;SDS011;1621;49.702;8.618;2023-02-01T15:43:26;8.67;;;3.67;;